Time;durP1;ratioP1;P1;durP2;ratioP2;P2;SDS_P1;SDS_P2;PMS_P1;PMS_P2;Temp;Humidity;BMP_temperature;BMP_pressure;BME280_temperature;BME280_humidity;BME280_pressure;Samples;Min_cycle;Max_cycle;Signal;HPM_P1;HPM_P2
2021/04/24 00:00:00;;;;;;;2.10;1.80;;;;;;;4.34;87.38;99940.03;10372630;28;20173;-77
2021/04/24 00:05:25;;;;;;;1.57;1.23;;;;;;;4.23;89.10;99938.88;10360788;28;20599;-77
2021/04/24 00:10:47;;;;;;;2.10;1.27;;;;;;;4.20;89.91;99943.06;10380956;28;20177;-76
2021/04/24 00:16:06;;;;;;;1.20;1.00;;;;;;;4.09;89.81;99941.09;10380363;28;20224;-76
2021/04/24 00:21:25;;;;;;;2.00;1.80;;;;;;;4.03;90.95;99945.97;10380487;28;20204;-76
2021/04/24 00:26:44;;;;;;;3.50;2.33;;;;;;;3.99;91.68;99942.31;10366115;28;20212;-76
2021/04/24 00:32:03;;;;;;;1.33;1.23;;;;;;;3.98;91.77;99943.44;10379801;28;20173;-76
2021/04/24 00:37:23;;;;;;;1.37;0.70;;;;;;;4.03;91.05;99943.25;10380264;28;20176;-77
2021/04/24 00:42:43;;;;;;;2.87;1.67;;;;;;;3.99;91.56;99947.75;10379875;28;20197;-78
2021/04/24 00:48:02;;;;;;;1.00;0.83;;;;;;;3.81;93.24;99947.44;10379922;28;20224;-77
2021/04/24 00:53:21;;;;;;;2.17;1.33;;;;;;;3.69;94.38;99939.25;10380348;28;20196;-78
2021/04/24 00:58:40;;;;;;;2.23;1.40;;;;;;;3.64;93.84;99934.00;10379165;28;20456;-76
2021/04/24 01:03:59;;;;;;;2.37;1.47;;;;;;;3.64;91.63;99928.56;10380041;28;20200;-77
2021/04/24 01:09:19;;;;;;;3.07;2.60;;;;;;;3.65;92.38;99930.97;10379843;28;20181;-77
2021/04/24 01:14:38;;;;;;;5.27;2.83;;;;;;;3.57;93.87;99918.22;10378292;28;20705;-77
2021/04/24 01:19:57;;;;;;;7.27;1.67;;;;;;;3.41;96.20;99921.88;10379588;28;20180;-78
2021/04/24 01:25:22;;;;;;;1.93;0.80;;;;;;;3.24;99.37;99922.00;10378748;28;20679;-76
2021/04/24 01:30:45;;;;;;;1.00;0.77;;;;;;;3.05;100.00;99918.13;10376751;28;20181;-77
2021/04/24 01:36:04;;;;;;;1.10;0.97;;;;;;;3.10;100.00;99912.53;10378806;28;20231;-77
2021/04/24 01:41:24;;;;;;;1.30;1.00;;;;;;;3.08;100.00;99918.28;10378459;28;20627;-78
2021/04/24 01:46:42;;;;;;;8.90;2.73;;;;;;;3.03;100.00;99912.25;10376387;28;20224;-77
2021/04/24 01:52:01;;;;;;;1.17;1.00;;;;;;;2.83;100.00;99905.63;10377262;28;20623;-77
2021/04/24 01:57:20;;;;;;;1.07;0.77;;;;;;;2.81;100.00;99899.75;10362558;28;20739;-77
2021/04/24 02:02:39;;;;;;;6.10;2.10;;;;;;;2.70;100.00;99900.47;10362835;28;20176;-76
2021/04/24 02:08:03;;;;;;;1.37;1.10;;;;;;;2.62;100.00;99904.81;10377708;28;20180;-77
2021/04/24 02:13:27;;;;;;;2.50;2.10;;;;;;;2.43;100.00;99898.97;10375920;28;20562;-77
2021/04/24 02:18:46;;;;;;;5.70;1.43;;;;;;;2.38;100.00;99901.88;10377302;28;20701;-77
2021/04/24 02:24:05;;;;;;;0.80;0.50;;;;;;;2.42;100.00;99889.22;10375843;28;20208;-77
2021/04/24 02:29:24;;;;;;;3.07;1.17;;;;;;;2.47;100.00;99896.41;10359965;28;20176;-77
2021/04/24 02:34:46;;;;;;;1.13;1.03;;;;;;;2.44;100.00;99889.72;10361662;28;20593;-77
2021/04/24 02:40:13;;;;;;;3.70;0.97;;;;;;;2.40;100.00;99886.06;10361472;28;20184;-76
2021/04/24 02:45:32;;;;;;;1.20;1.10;;;;;;;2.28;100.00;99884.34;10359446;28;20276;-76
2021/04/24 02:50:51;;;;;;;1.70;1.47;;;;;;;2.33;100.00;99887.69;10375876;28;20173;-77
2021/04/24 02:56:10;;;;;;;1.43;1.33;;;;;;;2.27;100.00;99880.03;10374781;28;20173;-76
2021/04/24 03:01:29;;;;;;;3.97;0.60;;;;;;;2.17;100.00;99880.41;10374321;28;20181;-77
2021/04/24 03:06:48;;;;;;;0.90;0.60;;;;;;;2.06;100.00;99874.53;10374689;28;20212;-76
2021/04/24 03:12:07;;;;;;;3.90;1.93;;;;;;;1.82;100.00;99878.91;10375098;28;20196;-77
2021/04/24 03:17:26;;;;;;;1.40;1.00;;;;;;;1.79;100.00;99884.97;10374920;28;20260;-77
2021/04/24 03:22:45;;;;;;;5.80;0.70;;;;;;;1.61;100.00;99886.16;10373787;28;20655;-77
2021/04/24 03:28:05;;;;;;;2.97;1.57;;;;;;;1.61;100.00;99878.78;10373428;28;20181;-77
2021/04/24 03:33:24;;;;;;;4.53;1.10;;;;;;;1.66;100.00;99888.69;10374597;28;20710;-77
2021/04/24 03:38:43;;;;;;;1.10;0.80;;;;;;;1.79;100.00;99884.97;10373657;28;20579;-77
2021/04/24 03:44:02;;;;;;;0.90;0.67;;;;;;;1.77;100.00;99889.94;10372832;28;20267;-77
2021/04/24 03:49:20;;;;;;;1.00;0.60;;;;;;;1.64;100.00;99897.16;10359329;28;20628;-77
2021/04/24 03:54:39;;;;;;;3.43;2.00;;;;;;;1.45;100.00;99882.34;10359290;28;20164;-77
2021/04/24 03:59:58;;;;;;;1.40;1.07;;;;;;;1.48;100.00;99889.81;10372695;28;20176;-77
2021/04/24 04:05:19;;;;;;;0.80;0.50;;;;;;;1.50;100.00;99892.19;10358432;28;20204;-77
2021/04/24 04:10:40;;;;;;;1.63;1.40;;;;;;;1.34;100.00;99889.19;10373716;28;20627;-76
2021/04/24 04:15:59;;;;;;;1.17;0.87;;;;;;;1.18;100.00;99896.19;10371095;28;20204;-77
2021/04/24 04:21:19;;;;;;;1.37;0.90;;;;;;;1.20;100.00;99893.97;10358646;28;20578;-75
2021/04/24 04:26:38;;;;;;;1.20;0.97;;;;;;;1.19;100.00;99902.41;10372827;28;20652;-76
2021/04/24 04:31:57;;;;;;;2.10;1.10;;;;;;;1.37;100.00;99906.72;10371972;28;20181;-76
2021/04/24 04:37:16;;;;;;;1.00;0.70;;;;;;;1.37;100.00;99907.53;10373367;28;20185;-76
2021/04/24 04:42:35;;;;;;;1.27;1.17;;;;;;;1.31;100.00;99906.06;10371577;28;20169;-76
2021/04/24 04:47:54;;;;;;;1.87;1.07;;;;;;;1.42;100.00;99904.66;10371377;28;20221;-77
2021/04/24 04:53:14;;;;;;;0.90;0.80;;;;;;;1.58;100.00;99894.91;10377200;28;20200;-77
2021/04/24 04:58:33;;;;;;;1.07;0.97;;;;;;;1.76;100.00;99901.91;10379168;28;20184;-77
2021/04/24 05:03:52;;;;;;;1.67;1.37;;;;;;;1.87;100.00;99897.72;10379792;28;20212;-76
2021/04/24 05:09:11;;;;;;;1.53;0.70;;;;;;;2.05;100.00;99904.72;10379943;28;20176;-78
2021/04/24 05:14:30;;;;;;;2.23;2.07;;;;;;;2.30;100.00;99904.63;10363405;28;20259;-77
2021/04/24 05:19:48;;;;;;;1.40;1.30;;;;;;;2.55;100.00;99915.38;10364751;28;20627;-78
2021/04/24 05:25:08;;;;;;;2.03;0.83;;;;;;;2.82;100.00;99914.94;10379018;28;20718;-77
2021/04/24 05:30:27;;;;;;;2.87;1.30;;;;;;;3.13;100.00;99907.22;10376857;28;20530;-77
2021/04/24 05:35:46;;;;;;;3.50;2.30;;;;;;;3.46;100.00;99919.75;10377920;28;20264;-78
2021/04/24 05:41:06;;;;;;;1.17;1.03;;;;;;;3.80;100.00;99914.00;10378614;28;20230;-78
2021/04/24 05:46:27;;;;;;;2.60;1.17;;;;;;;4.17;100.00;99918.44;10376567;28;20259;-78
2021/04/24 05:51:46;;;;;;;2.80;1.93;;;;;;;4.51;100.00;99910.66;10378069;28;20185;-79
2021/04/24 05:57:05;;;;;;;1.20;1.00;;;;;;;4.87;100.00;99916.09;10378077;28;20181;-79
2021/04/24 06:02:24;;;;;;;2.40;2.00;;;;;;;5.23;100.00;99905.97;10376366;28;20220;-78
2021/04/24 06:07:44;;;;;;;1.97;1.73;;;;;;;5.80;100.00;99903.75;10376826;28;20181;-77
2021/04/24 06:13:03;;;;;;;1.57;1.37;;;;;;;6.28;100.00;99907.03;10374829;28;20228;-78
2021/04/24 06:18:23;;;;;;;2.63;1.23;;;;;;;6.78;100.00;99901.69;10377319;28;20596;-76
2021/04/24 06:23:41;;;;;;;2.43;1.00;;;;;;;7.37;99.23;99905.78;10375759;28;20679;-78
2021/04/24 06:29:00;;;;;;;5.57;2.50;;;;;;;7.90;98.30;99900.25;10375532;28;20602;-77
2021/04/24 06:34:20;;;;;;;1.67;1.57;;;;;;;8.58;94.69;99901.94;10376110;28;20204;-78
2021/04/24 06:39:38;;;;;;;6.43;3.50;;;;;;;9.08;92.04;99901.56;10376326;28;20560;-78
2021/04/24 06:44:57;;;;;;;4.30;1.63;;;;;;;9.49;89.99;99893.13;10374475;28;20228;-78
2021/04/24 06:50:17;;;;;;;2.30;2.03;;;;;;;9.96;82.80;99890.56;10375911;28;20212;-78
2021/04/24 06:55:36;;;;;;;2.47;2.27;;;;;;;10.31;69.37;99896.50;10375927;28;20177;-78
2021/04/24 07:00:55;;;;;;;4.93;3.03;;;;;;;10.53;65.13;99899.84;10374279;28;20545;-78
2021/04/24 07:06:14;;;;;;;1.77;1.63;;;;;;;11.10;64.50;99896.41;10374747;28;20220;-77
2021/04/24 07:11:33;;;;;;;2.83;1.83;;;;;;;11.44;62.23;99895.03;10375066;28;20272;-78
2021/04/24 07:16:52;;;;;;;3.30;2.83;;;;;;;11.46;60.42;99896.22;10373620;28;20214;-78
2021/04/24 07:22:11;;;;;;;4.20;2.90;;;;;;;11.77;59.15;99897.59;10374714;28;20184;-78
2021/04/24 07:27:30;;;;;;;1.93;1.83;;;;;;;12.02;58.42;99889.03;10357838;28;20197;-77
2021/04/24 07:32:49;;;;;;;3.47;1.77;;;;;;;12.70;57.95;99893.50;10373598;28;20177;-79
2021/04/24 07:38:09;;;;;;;1.60;1.20;;;;;;;13.05;56.55;99886.03;10373280;28;20168;-79
2021/04/24 07:43:28;;;;;;;4.90;3.83;;;;;;;13.52;54.85;99876.06;10373053;28;20211;-78
2021/04/24 07:48:47;;;;;;;4.00;2.47;;;;;;;13.62;54.21;99886.31;10306148;28;20229;-79
2021/04/24 07:54:06;;;;;;;5.93;2.10;;;;;;;14.15;51.83;99878.56;10293080;28;20185;-79
2021/04/24 07:59:26;;;;;;;11.93;2.60;;;;;;;14.89;50.89;99882.44;10286719;28;20186;-79
2021/04/24 08:04:45;;;;;;;3.40;2.07;;;;;;;15.21;49.19;99869.06;10292858;28;20205;-78
2021/04/24 08:10:05;;;;;;;2.83;2.60;;;;;;;15.60;46.36;99869.47;10292712;28;20202;-79
2021/04/24 08:15:26;;;;;;;3.77;2.80;;;;;;;16.48;43.87;99861.56;10291770;28;20182;-79
2021/04/24 08:20:45;;;;;;;7.30;2.73;;;;;;;16.93;44.95;99858.84;10292936;28;20170;-79
2021/04/24 08:26:04;;;;;;;4.20;2.70;;;;;;;16.90;43.14;99861.69;10286207;28;20202;-79
2021/04/24 08:31:24;;;;;;;3.63;2.40;;;;;;;17.11;40.83;99859.34;10299491;28;20257;-79
2021/04/24 08:36:44;;;;;;;6.03;2.23;;;;;;;17.40;42.85;99849.28;10299668;28;20174;-79
2021/04/24 08:42:05;;;;;;;2.90;2.37;;;;;;;18.30;38.52;99848.63;10300135;28;20225;-81
2021/04/24 08:47:27;;;;;;;4.47;2.80;;;;;;;18.90;37.89;99838.38;10322967;28;20225;-79
2021/04/24 08:52:47;;;;;;;3.70;2.00;;;;;;;18.97;37.59;99846.59;10340078;28;20188;-80
2021/04/24 08:58:06;;;;;;;4.47;2.30;;;;;;;19.11;34.88;99843.47;10338429;28;20591;-80
2021/04/24 09:03:25;;;;;;;3.43;2.67;;;;;;;18.82;34.31;99834.19;10324877;28;20231;-80
2021/04/24 09:08:56;;;;;;;4.07;3.03;;;;;;;19.33;36.36;99839.69;10339363;28;20260;-79
2021/04/24 09:14:16;;;;;;;3.00;2.23;;;;;;;19.80;34.57;99826.78;10337684;28;20241;-80
2021/04/24 09:19:37;;;;;;;4.33;2.50;;;;;;;20.07;34.26;99825.19;10339203;28;20178;-79
2021/04/24 09:24:56;;;;;;;4.80;2.50;;;;;;;19.85;33.42;99828.25;10338636;28;20212;-80
2021/04/24 09:30:23;;;;;;;3.10;2.80;;;;;;;20.13;32.74;99819.81;10336769;28;20221;-80
2021/04/24 09:35:48;;;;;;;5.03;2.63;;;;;;;20.87;30.94;99819.03;10338601;28;20185;-80
2021/04/24 09:41:24;;;;;;;16.53;3.03;;;;;;;20.68;30.49;99808.84;10338231;28;20178;-80
2021/04/24 09:46:46;;;;;;;8.77;2.80;;;;;;;20.80;32.65;99802.50;10360699;28;20323;-79
2021/04/24 09:52:08;;;;;;;7.17;3.37;;;;;;;21.81;31.67;99788.44;10377811;28;20256;-80
2021/04/24 09:57:33;;;;;;;4.50;3.20;;;;;;;22.08;31.30;99776.63;10376890;28;20623;-79
2021/04/24 10:02:52;;;;;;;3.00;2.67;;;;;;;22.34;31.16;99778.00;10377857;28;20531;-79
2021/04/24 10:08:18;;;;;;;10.03;3.73;;;;;;;21.87;31.16;99775.44;10377650;28;20192;-80
2021/04/24 10:13:39;;;;;;;5.50;3.33;;;;;;;22.79;29.86;99760.06;10376168;28;20651;-79
2021/04/24 10:19:01;;;;;;;5.73;2.43;;;;;;;22.79;31.21;99765.69;10377025;28;20184;-80
2021/04/24 10:24:23;;;;;;;9.77;3.83;;;;;;;23.26;28.35;99745.63;10376718;28;20208;-81
2021/04/24 10:29:43;;;;;;;5.97;3.13;;;;;;;24.16;27.40;99761.06;10375722;28;20219;-81
2021/04/24 10:35:02;;;;;;;4.00;3.30;;;;;;;24.26;28.83;99748.53;10376783;28;20562;-80
2021/04/24 10:40:22;;;;;;;5.33;2.83;;;;;;;21.38;28.22;99744.88;10376356;28;20598;-80
2021/04/24 10:45:41;;;;;;;2.63;2.43;;;;;;;22.29;29.79;99742.94;10374574;28;20232;-80
2021/04/24 10:51:00;;;;;;;7.30;3.80;;;;;;;19.92;29.64;99749.81;10375504;28;20627;-79
2021/04/24 10:56:31;;;;;;;4.97;2.70;;;;;;;22.33;28.51;99732.38;10375684;28;20544;-80
2021/04/24 11:02:07;;;;;;;9.50;3.10;;;;;;;22.90;27.80;99723.13;10374675;28;20226;-80
2021/04/24 11:07:28;;;;;;;5.33;3.23;;;;;;;20.84;29.20;99721.25;10374835;28;20213;-79
2021/04/24 11:12:48;;;;;;;6.47;2.67;;;;;;;20.03;28.73;99719.59;10372984;28;20204;-79
2021/04/24 11:18:10;;;;;;;3.43;2.60;;;;;;;20.56;31.10;99713.81;10375147;28;20177;-80
2021/04/24 11:23:29;;;;;;;5.90;2.87;;;;;;;22.47;25.53;99709.34;10374837;28;20655;-78
2021/04/24 11:28:57;;;;;;;3.67;2.57;;;;;;;23.39;25.97;99702.88;10372688;28;20204;-78
2021/04/24 11:34:25;;;;;;;9.27;3.60;;;;;;;23.06;26.31;99697.59;10374407;28;20176;-78
2021/04/24 11:40:09;;;;;;;3.93;3.10;;;;;;;23.27;27.28;99691.00;10373297;28;20192;-79
2021/04/24 11:45:47;;;;;;;3.90;2.60;;;;;;;22.49;27.18;99695.66;10372459;28;20240;-79
2021/04/24 11:51:05;;;;;;;6.10;2.13;;;;;;;22.77;27.40;99694.44;10374064;28;20172;-80
2021/04/24 11:56:25;;;;;;;8.13;2.67;;;;;;;23.52;24.78;99692.22;10374052;28;20204;-79
2021/04/24 12:01:44;;;;;;;6.43;2.67;;;;;;;23.90;23.48;99683.25;10357042;28;20582;-79
2021/04/24 12:07:14;;;;;;;3.60;2.90;;;;;;;24.12;26.29;99684.56;10373170;28;20200;-79
2021/04/24 12:12:34;;;;;;;3.23;2.20;;;;;;;23.71;23.83;99662.84;10372307;28;20197;-79
2021/04/24 12:17:58;;;;;;;3.57;2.80;;;;;;;22.09;25.31;99663.28;10373627;28;20697;-79
2021/04/24 12:23:17;;;;;;;2.40;2.20;;;;;;;23.27;25.50;99665.75;10373431;28;20236;-79
2021/04/24 12:28:43;;;;;;;2.30;2.03;;;;;;;21.48;26.59;99651.31;10371113;28;20259;-79
2021/04/24 12:34:02;;;;;;;3.23;1.83;;;;;;;21.27;26.94;99638.13;10373273;28;20188;-78
2021/04/24 12:39:22;;;;;;;2.30;2.10;;;;;;;21.76;25.71;99634.22;10373170;28;20177;-78
2021/04/24 12:44:41;;;;;;;2.87;2.47;;;;;;;22.94;24.93;99626.31;10371475;28;20220;-77
2021/04/24 12:50:12;;;;;;;4.50;1.97;;;;;;;23.38;25.29;99621.91;10373039;28;20185;-76
2021/04/24 12:55:35;;;;;;;2.77;2.40;;;;;;;24.40;23.87;99615.63;10372871;28;20185;-78
2021/04/24 13:00:54;;;;;;;3.10;2.57;;;;;;;25.31;22.98;99614.44;10356882;28;20651;-77
2021/04/24 13:06:18;;;;;;;3.27;2.30;;;;;;;25.68;22.24;99599.44;10372411;28;20229;-78
2021/04/24 13:11:43;;;;;;;12.20;2.93;;;;;;;25.23;23.36;99599.94;10373786;28;20232;-78
2021/04/24 13:17:09;;;;;;;3.47;2.80;;;;;;;26.18;22.83;99592.50;10378475;28;20628;-78
2021/04/24 13:22:41;;;;;;;3.37;2.50;;;;;;;26.32;20.92;99583.22;10364625;28;20181;-78
2021/04/24 13:28:01;;;;;;;4.83;2.60;;;;;;;25.18;22.08;99583.75;10378251;28;20627;-77
2021/04/24 13:33:34;;;;;;;5.20;2.53;;;;;;;25.66;21.44;99579.41;10379093;28;20188;-77
2021/04/24 13:39:00;;;;;;;4.10;3.67;;;;;;;23.97;21.74;99578.91;10364016;28;20185;-77
2021/04/24 13:44:21;;;;;;;2.13;1.77;;;;;;;22.41;22.98;99573.03;10362560;28;20244;-77
2021/04/24 13:49:41;;;;;;;4.43;2.43;;;;;;;23.96;21.51;99572.50;10378488;28;20176;-77
2021/04/24 13:55:00;;;;;;;3.53;2.23;;;;;;;25.00;22.83;99566.19;10378296;28;20180;-77
2021/04/24 14:00:19;;;;;;;3.40;2.73;;;;;;;24.51;21.76;99557.63;10376982;28;20189;-77
2021/04/24 14:05:39;;;;;;;5.20;3.20;;;;;;;23.63;23.85;99559.69;10377558;28;20212;-77
2021/04/24 14:10:58;;;;;;;3.77;3.03;;;;;;;23.87;23.50;99552.13;10362782;28;20192;-77
2021/04/24 14:16:17;;;;;;;8.63;1.93;;;;;;;23.67;23.46;99547.03;10376440;28;20528;-77
2021/04/24 14:21:37;;;;;;;4.43;3.30;;;;;;;23.40;22.28;99544.34;10377110;28;20601;-77
2021/04/24 14:26:55;;;;;;;3.10;2.40;;;;;;;22.84;23.43;99537.78;10375790;28;20208;-77
2021/04/24 14:32:14;;;;;;;5.00;2.73;;;;;;;23.19;24.36;99536.16;10375826;28;20173;-77
2021/04/24 14:37:35;;;;;;;6.13;2.67;;;;;;;22.77;24.65;99532.50;10376512;28;20200;-77
2021/04/24 14:42:55;;;;;;;2.63;2.40;;;;;;;23.07;24.17;99536.34;10375393;28;20315;-77
2021/04/24 14:48:14;;;;;;;7.23;2.30;;;;;;;23.45;23.28;99529.66;10375514;28;20228;-77
2021/04/24 14:53:33;;;;;;;21.10;3.37;;;;;;;24.38;22.91;99514.09;10375009;28;20212;-77
2021/04/24 14:58:52;;;;;;;6.17;2.70;;;;;;;23.79;22.08;99515.16;10374729;28;20168;-77
2021/04/24 15:04:11;;;;;;;5.77;3.20;;;;;;;23.98;21.89;99513.78;10375551;28;20244;-77
2021/04/24 15:09:30;;;;;;;3.63;2.00;;;;;;;24.08;22.31;99504.00;10375434;28;20205;-77
2021/04/24 15:14:49;;;;;;;4.07;2.37;;;;;;;23.31;22.20;99509.91;10374326;28;20212;-77
2021/04/24 15:20:10;;;;;;;3.67;2.50;;;;;;;23.46;20.81;99497.50;10375292;28;20631;-77
2021/04/24 15:25:29;;;;;;;2.83;2.60;;;;;;;22.48;23.25;99494.22;10373626;28;20250;-77
2021/04/24 15:30:48;;;;;;;4.57;2.60;;;;;;;23.43;21.33;99495.66;10358904;28;20185;-77
2021/04/24 15:36:07;;;;;;;5.50;4.50;;;;;;;24.25;21.40;99475.00;10374467;28;20176;-77
2021/04/24 15:41:30;;;;;;;2.67;2.40;;;;;;;24.28;21.08;99478.88;10374546;28;20256;-77
2021/04/24 15:46:49;;;;;;;2.60;1.57;;;;;;;24.43;20.55;99477.66;10372133;28;20232;-77
2021/04/24 15:52:10;;;;;;;1.87;1.67;;;;;;;23.76;20.29;99481.63;10374130;28;20259;-77
2021/04/24 15:57:30;;;;;;;2.60;1.70;;;;;;;23.10;20.12;99482.09;10373148;28;20188;-77
2021/04/24 16:02:51;;;;;;;8.57;3.13;;;;;;;22.64;25.72;99483.44;10359206;28;20263;-77
2021/04/24 16:08:10;;;;;;;3.97;3.20;;;;;;;22.72;28.37;99487.47;10373708;28;20222;-77
2021/04/24 16:13:29;;;;;;;5.20;2.80;;;;;;;22.31;29.03;99488.13;10357581;28;20259;-77
2021/04/24 16:18:48;;;;;;;13.07;3.70;;;;;;;22.48;29.68;99480.19;10358867;28;20204;-77
2021/04/24 16:24:08;;;;;;;3.93;2.63;;;;;;;21.42;30.17;99491.56;10373286;28;20239;-76
2021/04/24 16:29:28;;;;;;;4.80;3.30;;;;;;;20.90;30.93;99500.03;10372468;28;20177;-76
2021/04/24 16:34:47;;;;;;;3.57;3.27;;;;;;;20.17;32.00;99502.78;10371817;28;20181;-77
2021/04/24 16:40:07;;;;;;;3.63;2.77;;;;;;;19.06;33.98;99506.47;10373322;28;20181;-77
2021/04/24 16:45:26;;;;;;;3.33;2.57;;;;;;;18.31;35.52;99502.00;10370597;28;20262;-76
2021/04/24 16:50:45;;;;;;;4.70;2.93;;;;;;;18.14;35.25;99506.00;10380571;28;20520;-76
2021/04/24 16:56:04;;;;;;;2.83;2.20;;;;;;;17.77;36.02;99504.59;10380493;28;20632;-76
2021/04/24 17:01:23;;;;;;;7.63;2.37;;;;;;;17.72;35.46;99507.13;10379088;28;20631;-76
2021/04/24 17:06:42;;;;;;;5.30;2.80;;;;;;;17.11;36.29;99505.44;10379738;28;20674;-76
2021/04/24 17:12:01;;;;;;;7.03;2.60;;;;;;;16.72;37.00;99496.44;10380059;28;20192;-76
2021/04/24 17:17:20;;;;;;;1.67;1.27;;;;;;;16.47;37.34;99502.50;10378855;28;20173;-76
2021/04/24 17:22:39;;;;;;;2.40;2.03;;;;;;;16.07;38.50;99511.22;10379536;28;20655;-76
2021/04/24 17:27:58;;;;;;;7.00;2.50;;;;;;;15.81;39.38;99508.53;10377589;28;20259;-76
2021/04/24 17:33:17;;;;;;;3.67;1.83;;;;;;;15.68;39.30;99510.34;10379092;28;20611;-76
2021/04/24 17:38:36;;;;;;;3.63;1.93;;;;;;;15.47;39.78;99505.94;10379088;28;20260;-76
2021/04/24 17:43:55;;;;;;;6.53;2.20;;;;;;;15.08;41.60;99515.28;10377280;28;20209;-75
2021/04/24 17:49:15;;;;;;;2.07;1.40;;;;;;;15.04;41.41;99517.28;10378690;28;20615;-76
2021/04/24 17:54:34;;;;;;;3.77;2.30;;;;;;;14.91;41.25;99527.38;10378287;28;20184;-76
2021/04/24 17:59:53;;;;;;;2.03;1.80;;;;;;;14.72;41.69;99530.81;10374696;28;20177;-76
2021/04/24 18:05:12;;;;;;;1.87;1.50;;;;;;;14.47;42.45;99542.22;10377629;28;20200;-76
2021/04/24 18:10:31;;;;;;;5.10;1.50;;;;;;;14.35;43.02;99542.72;10362713;28;20220;-76
2021/04/24 18:15:50;;;;;;;4.60;1.90;;;;;;;14.21;42.65;99549.63;10376348;28;20619;-76
2021/04/24 18:21:10;;;;;;;9.43;2.50;;;;;;;13.94;42.75;99551.44;10377316;28;20193;-76
2021/04/24 18:26:29;;;;;;;2.47;1.70;;;;;;;13.69;43.04;99554.47;10361857;28;20299;-76
2021/04/24 18:31:48;;;;;;;2.37;1.40;;;;;;;13.52;43.36;99563.69;10375647;28;20263;-76
2021/04/24 18:37:08;;;;;;;2.40;1.90;;;;;;;13.41;43.99;99570.50;10375734;28;20176;-76
2021/04/24 18:42:27;;;;;;;5.10;1.40;;;;;;;13.23;43.38;99571.81;10376267;28;20184;-76
2021/04/24 18:47:47;;;;;;;1.77;1.33;;;;;;;12.99;44.40;99584.56;10375611;28;20644;-76
2021/04/24 18:53:06;;;;;;;3.87;2.43;;;;;;;12.80;45.13;99579.50;10361347;28;20177;-76
2021/04/24 18:58:26;;;;;;;4.73;1.90;;;;;;;12.61;45.99;99584.72;10374660;28;20185;-76
2021/04/24 19:03:46;;;;;;;2.10;1.90;;;;;;;12.41;46.54;99591.09;10375852;28;20208;-76
2021/04/24 19:09:05;;;;;;;3.20;1.47;;;;;;;12.22;47.16;99595.09;10375138;28;20189;-76
2021/04/24 19:14:25;;;;;;;3.00;2.60;;;;;;;12.09;47.46;99584.88;10374162;28;20627;-76
2021/04/24 19:19:44;;;;;;;2.23;2.00;;;;;;;11.93;47.74;99594.75;10375234;28;20177;-76
2021/04/24 19:25:03;;;;;;;1.83;1.67;;;;;;;11.78;48.99;99593.97;10359905;28;20216;-76
2021/04/24 19:30:24;;;;;;;2.37;2.10;;;;;;;11.76;49.02;99598.31;10372624;28;20546;-76
2021/04/24 19:35:44;;;;;;;3.50;2.10;;;;;;;11.59;49.88;99599.88;10374667;28;20181;-76
2021/04/24 19:41:03;;;;;;;1.83;1.73;;;;;;;11.53;50.19;99592.41;10374798;28;20168;-75
2021/04/24 19:46:22;;;;;;;1.33;1.10;;;;;;;11.32;51.05;99598.66;10357617;28;20228;-75
2021/04/24 19:51:41;;;;;;;2.40;1.80;;;;;;;11.19;51.69;99596.66;10359415;28;20168;-76
2021/04/24 19:57:00;;;;;;;7.77;2.47;;;;;;;11.09;52.45;99597.44;10373076;28;20184;-76
2021/04/24 20:02:19;;;;;;;4.03;1.70;;;;;;;10.95;53.19;99596.59;10357881;28;20173;-76
2021/04/24 20:07:40;;;;;;;2.47;1.53;;;;;;;10.84;53.73;99602.06;10373075;28;20682;-75
2021/04/24 20:12:59;;;;;;;2.20;1.87;;;;;;;10.55;54.93;99602.34;10372600;28;20659;-76
2021/04/24 20:18:19;;;;;;;10.90;2.53;;;;;;;10.32;55.84;99613.66;10373796;28;20188;-76
2021/04/24 20:23:39;;;;;;;5.10;1.87;;;;;;;10.24;56.63;99615.94;10377944;28;20208;-76
2021/04/24 20:29:00;;;;;;;3.50;2.53;;;;;;;10.15;57.42;99621.00;10380453;28;20177;-76
2021/04/24 20:34:19;;;;;;;8.00;2.03;;;;;;;10.11;57.79;99622.91;10366471;28;20180;-75
2021/04/24 20:39:38;;;;;;;3.50;1.80;;;;;;;9.93;58.85;99611.00;10366372;28;20177;-75
2021/04/24 20:44:56;;;;;;;3.07;2.10;;;;;;;9.81;59.34;99608.56;10378235;28;20224;-75
2021/04/24 20:50:15;;;;;;;3.97;2.93;;;;;;;9.77;59.76;99614.03;10366058;28;20181;-76
2021/04/24 20:55:34;;;;;;;2.93;2.30;;;;;;;9.63;60.30;99622.16;10380687;28;20615;-76
2021/04/24 21:00:55;;;;;;;2.80;1.73;;;;;;;9.56;61.04;99621.28;10379313;28;20181;-76
2021/04/24 21:06:15;;;;;;;2.27;1.17;;;;;;;9.53;61.52;99625.59;10379975;28;20208;-75
2021/04/24 21:11:34;;;;;;;1.53;1.43;;;;;;;9.32;62.21;99623.84;10380079;28;20267;-76
2021/04/24 21:16:53;;;;;;;5.50;2.97;;;;;;;9.18;63.08;99635.47;10378820;28;20184;-76
2021/04/24 21:22:12;;;;;;;6.40;2.60;;;;;;;9.06;63.57;99632.97;10379753;28;20177;-76
2021/04/24 21:27:31;;;;;;;1.13;1.03;;;;;;;8.91;64.54;99647.69;10378230;28;20208;-75
2021/04/24 21:32:50;;;;;;;1.60;1.10;;;;;;;8.71;65.50;99642.75;10364087;28;20623;-75
2021/04/24 21:38:09;;;;;;;6.90;3.00;;;;;;;8.73;65.28;99643.94;10378118;28;20192;-76
2021/04/24 21:43:28;;;;;;;3.03;1.10;;;;;;;8.55;65.43;99641.38;10362624;28;20650;-75
2021/04/24 21:48:48;;;;;;;2.10;1.80;;;;;;;8.40;66.37;99636.88;10378746;28;20220;-75
2021/04/24 21:54:07;;;;;;;2.63;1.30;;;;;;;8.26;67.33;99650.34;10378530;28;20180;-75
2021/04/24 21:59:25;;;;;;;1.83;1.10;;;;;;;8.17;67.32;99647.09;10377030;28;20616;-76
2021/04/24 22:04:45;;;;;;;4.37;2.17;;;;;;;8.15;67.39;99641.22;10376817;28;20216;-76
2021/04/24 22:10:04;;;;;;;2.60;2.13;;;;;;;8.06;67.96;99641.44;10377678;28;20216;-76
2021/04/24 22:15:23;;;;;;;2.00;1.63;;;;;;;7.99;68.41;99637.81;10376367;28;20189;-76
2021/04/24 22:20:43;;;;;;;4.83;1.97;;;;;;;7.92;68.28;99643.97;10377402;28;20173;-75
2021/04/24 22:26:02;;;;;;;1.60;1.17;;;;;;;7.81;69.22;99653.16;10376783;28;20204;-76
2021/04/24 22:31:21;;;;;;;2.70;1.53;;;;;;;7.73;69.56;99656.16;10375615;28;20180;-75
2021/04/24 22:36:40;;;;;;;3.10;1.80;;;;;;;7.63;70.20;99651.31;10376920;28;20173;-75
2021/04/24 22:41:59;;;;;;;1.57;1.10;;;;;;;7.50;70.63;99656.19;10361762;28;20619;-75
2021/04/24 22:47:18;;;;;;;1.97;1.70;;;;;;;7.42;71.11;99651.72;10372921;28;20224;-75
2021/04/24 22:52:37;;;;;;;2.50;1.90;;;;;;;7.38;71.26;99656.34;10376245;28;20216;-75
2021/04/24 22:57:56;;;;;;;3.60;2.40;;;;;;;7.27;71.76;99660.03;10373900;28;20180;-75
2021/04/24 23:03:15;;;;;;;2.20;1.50;;;;;;;7.17;72.84;99666.91;10375859;28;20172;-75
2021/04/24 23:08:34;;;;;;;4.80;2.70;;;;;;;7.16;72.86;99670.78;10375558;28;20224;-75
2021/04/24 23:13:53;;;;;;;29.00;3.40;;;;;;;7.09;73.18;99663.59;10374244;28;20181;-75
2021/04/24 23:19:12;;;;;;;2.13;1.50;;;;;;;7.00;73.31;99671.25;10374840;28;20181;-75
2021/04/24 23:24:31;;;;;;;2.50;1.47;;;;;;;6.78;74.08;99671.97;10374976;28;20665;-75
2021/04/24 23:29:50;;;;;;;1.77;1.30;;;;;;;6.56;75.78;99675.41;10373574;28;20180;-75
2021/04/24 23:35:10;;;;;;;2.43;2.20;;;;;;;6.50;76.15;99691.28;10360063;28;20188;-75
2021/04/24 23:40:29;;;;;;;1.37;1.23;;;;;;;6.49;76.75;99675.25;10374627;28;20199;-74
2021/04/24 23:45:48;;;;;;;4.20;3.03;;;;;;;6.38;77.13;99683.22;10357831;28;20675;-75
2021/04/24 23:51:07;;;;;;;1.40;1.30;;;;;;;6.40;77.17;99670.00;10374379;28;20616;-75
2021/04/24 23:56:26;;;;;;;2.17;1.60;;;;;;;6.38;77.05;99669.56;10374073;28;20173;-75
